sensor_id;sensor_type;location;lat;lon;timestamp;P1;durP1;ratioP1;P2;durP2;ratioP2
54143;SDS011;40050;47.324;18.792;2023-03-12T00:00:25;6.68;;;3.69;;
54143;SDS011;40050;47.324;18.792;2023-03-12T00:02:22;6.49;;;4.09;;
54143;SDS011;40050;47.324;18.792;2023-03-12T00:04:23;7.08;;;3.89;;
54143;SDS011;40050;47.324;18.792;2023-03-12T00:06:24;6.59;;;3.79;;
54143;SDS011;40050;47.324;18.792;2023-03-12T00:08:25;5.61;;;3.59;;
54143;SDS011;40050;47.324;18.792;2023-03-12T00:10:26;6.20;;;3.79;;
54143;SDS011;40050;47.324;18.792;2023-03-12T00:12:27;7.18;;;4.09;;
54143;SDS011;40050;47.324;18.792;2023-03-12T00:14:28;5.91;;;3.89;;
54143;SDS011;40050;47.324;18.792;2023-03-12T00:16:33;6.60;;;3.79;;
54143;SDS011;40050;47.324;18.792;2023-03-12T00:18:34;6.30;;;3.89;;
54143;SDS011;40050;47.324;18.792;2023-03-12T00:20:35;6.69;;;3.79;;
54143;SDS011;40050;47.324;18.792;2023-03-12T00:22:36;5.61;;;3.79;;
54143;SDS011;40050;47.324;18.792;2023-03-12T00:24:38;6.89;;;3.49;;
54143;SDS011;40050;47.324;18.792;2023-03-12T00:26:41;7.18;;;3.99;;
54143;SDS011;40050;47.324;18.792;2023-03-12T00:28:42;6.01;;;3.79;;
54143;SDS011;40050;47.324;18.792;2023-03-12T00:30:43;7.19;;;3.69;;
54143;SDS011;40050;47.324;18.792;2023-03-12T00:32:46;5.61;;;3.50;;
54143;SDS011;40050;47.324;18.792;2023-03-12T00:34:50;6.01;;;3.40;;
54143;SDS011;40050;47.324;18.792;2023-03-12T00:36:49;4.53;;;3.30;;
54143;SDS011;40050;47.324;18.792;2023-03-12T00:38:53;5.91;;;3.59;;
54143;SDS011;40050;47.324;18.792;2023-03-12T00:40:54;6.40;;;3.59;;
54143;SDS011;40050;47.324;18.792;2023-03-12T00:42:55;5.32;;;3.69;;
54143;SDS011;40050;47.324;18.792;2023-03-12T00:44:56;7.09;;;3.69;;
54143;SDS011;40050;47.324;18.792;2023-03-12T00:46:57;7.09;;;3.79;;
54143;SDS011;40050;47.324;18.792;2023-03-12T00:48:58;5.71;;;3.59;;
54143;SDS011;40050;47.324;18.792;2023-03-12T00:50:59;6.60;;;3.59;;
54143;SDS011;40050;47.324;18.792;2023-03-12T00:53:00;6.30;;;3.69;;
54143;SDS011;40050;47.324;18.792;2023-03-12T00:55:01;6.99;;;3.79;;
54143;SDS011;40050;47.324;18.792;2023-03-12T00:57:02;7.28;;;3.69;;
54143;SDS011;40050;47.324;18.792;2023-03-12T00:59:03;5.31;;;3.59;;
54143;SDS011;40050;47.324;18.792;2023-03-12T01:01:04;5.71;;;3.59;;
54143;SDS011;40050;47.324;18.792;2023-03-12T01:03:05;5.90;;;3.59;;
54143;SDS011;40050;47.324;18.792;2023-03-12T01:05:06;5.51;;;3.39;;
54143;SDS011;40050;47.324;18.792;2023-03-12T01:07:07;6.58;;;3.59;;
54143;SDS011;40050;47.324;18.792;2023-03-12T01:09:08;6.48;;;4.09;;
54143;SDS011;40050;47.324;18.792;2023-03-12T01:11:15;6.09;;;3.79;;
54143;SDS011;40050;47.324;18.792;2023-03-12T01:13:13;6.78;;;4.19;;
54143;SDS011;40050;47.324;18.792;2023-03-12T01:15:15;7.27;;;4.29;;
54143;SDS011;40050;47.324;18.792;2023-03-12T01:17:15;8.65;;;4.89;;
54143;SDS011;40050;47.324;18.792;2023-03-12T01:19:16;8.06;;;4.69;;
54143;SDS011;40050;47.324;18.792;2023-03-12T01:21:17;8.64;;;4.69;;
54143;SDS011;40050;47.324;18.792;2023-03-12T01:23:18;7.95;;;4.59;;
54143;SDS011;40050;47.324;18.792;2023-03-12T01:25:19;8.44;;;4.99;;
54143;SDS011;40050;47.324;18.792;2023-03-12T01:27:19;7.85;;;5.19;;
54143;SDS011;40050;47.324;18.792;2023-03-12T01:29:20;8.83;;;5.09;;
54143;SDS011;40050;47.324;18.792;2023-03-12T01:31:21;9.22;;;5.19;;
54143;SDS011;40050;47.324;18.792;2023-03-12T01:33:22;10.79;;;5.19;;
54143;SDS011;40050;47.324;18.792;2023-03-12T01:35:23;9.12;;;5.29;;
54143;SDS011;40050;47.324;18.792;2023-03-12T01:37:25;9.41;;;5.59;;
54143;SDS011;40050;47.324;18.792;2023-03-12T01:39:26;9.02;;;5.19;;
54143;SDS011;40050;47.324;18.792;2023-03-12T01:41:28;8.83;;;5.39;;
54143;SDS011;40050;47.324;18.792;2023-03-12T01:43:29;11.08;;;5.69;;
54143;SDS011;40050;47.324;18.792;2023-03-12T01:47:31;10.48;;;5.69;;
54143;SDS011;40050;47.324;18.792;2023-03-12T01:49:35;10.09;;;5.29;;
54143;SDS011;40050;47.324;18.792;2023-03-12T01:51:42;8.92;;;5.19;;
54143;SDS011;40050;47.324;18.792;2023-03-12T01:53:39;8.62;;;5.49;;
54143;SDS011;40050;47.324;18.792;2023-03-12T01:55:42;10.87;;;5.69;;
54143;SDS011;40050;47.324;18.792;2023-03-12T01:57:52;10.19;;;5.69;;
54143;SDS011;40050;47.324;18.792;2023-03-12T01:59:56;9.01;;;5.59;;
54143;SDS011;40050;47.324;18.792;2023-03-12T02:01:54;10.37;;;5.79;;
54143;SDS011;40050;47.324;18.792;2023-03-12T02:03:56;10.47;;;5.79;;
54143;SDS011;40050;47.324;18.792;2023-03-12T02:06:13;13.89;;;5.69;;
54143;SDS011;40050;47.324;18.792;2023-03-12T02:08:04;9.68;;;5.89;;
54143;SDS011;40050;47.324;18.792;2023-03-12T02:10:07;9.97;;;5.89;;
54143;SDS011;40050;47.324;18.792;2023-03-12T02:12:10;10.46;;;5.79;;
54143;SDS011;40050;47.324;18.792;2023-03-12T02:14:09;9.29;;;5.69;;
54143;SDS011;40050;47.324;18.792;2023-03-12T02:16:10;9.29;;;5.39;;
54143;SDS011;40050;47.324;18.792;2023-03-12T02:18:12;9.39;;;5.79;;
54143;SDS011;40050;47.324;18.792;2023-03-12T02:21:01;10.37;;;5.49;;
54143;SDS011;40050;47.324;18.792;2023-03-12T02:22:38;10.07;;;5.88;;
54143;SDS011;40050;47.324;18.792;2023-03-12T02:25:00;9.38;;;5.49;;
54143;SDS011;40050;47.324;18.792;2023-03-12T02:26:49;9.09;;;5.49;;
54143;SDS011;40050;47.324;18.792;2023-03-12T02:28:53;9.38;;;5.69;;
54143;SDS011;40050;47.324;18.792;2023-03-12T02:30:58;10.75;;;5.79;;
54143;SDS011;40050;47.324;18.792;2023-03-12T02:33:01;9.68;;;5.79;;
54143;SDS011;40050;47.324;18.792;2023-03-12T02:34:58;8.70;;;5.59;;
54143;SDS011;40050;47.324;18.792;2023-03-12T02:37:02;8.11;;;5.29;;
54143;SDS011;40050;47.324;18.792;2023-03-12T02:39:11;11.24;;;6.08;;
54143;SDS011;40050;47.324;18.792;2023-03-12T02:41:28;9.28;;;5.88;;
54143;SDS011;40050;47.324;18.792;2023-03-12T02:43:15;9.38;;;5.78;;
54143;SDS011;40050;47.324;18.792;2023-03-12T02:45:15;9.18;;;5.49;;
54143;SDS011;40050;47.324;18.792;2023-03-12T02:47:18;9.97;;;5.88;;
54143;SDS011;40050;47.324;18.792;2023-03-12T02:49:20;9.38;;;5.59;;
54143;SDS011;40050;47.324;18.792;2023-03-12T02:51:20;12.51;;;5.98;;
54143;SDS011;40050;47.324;18.792;2023-03-12T02:53:21;9.77;;;5.78;;
54143;SDS011;40050;47.324;18.792;2023-03-12T02:55:22;11.23;;;5.88;;
54143;SDS011;40050;47.324;18.792;2023-03-12T02:57:23;10.26;;;5.88;;
54143;SDS011;40050;47.324;18.792;2023-03-12T02:59:24;8.88;;;5.98;;
54143;SDS011;40050;47.324;18.792;2023-03-12T03:01:25;10.06;;;5.88;;
54143;SDS011;40050;47.324;18.792;2023-03-12T03:03:26;10.55;;;6.28;;
54143;SDS011;40050;47.324;18.792;2023-03-12T03:05:27;10.75;;;6.08;;
54143;SDS011;40050;47.324;18.792;2023-03-12T03:07:28;9.87;;;6.08;;
54143;SDS011;40050;47.324;18.792;2023-03-12T03:09:29;10.36;;;6.38;;
54143;SDS011;40050;47.324;18.792;2023-03-12T03:11:30;10.25;;;6.28;;
54143;SDS011;40050;47.324;18.792;2023-03-12T03:13:31;11.81;;;6.58;;
54143;SDS011;40050;47.324;18.792;2023-03-12T03:15:33;12.89;;;6.98;;
54143;SDS011;40050;47.324;18.792;2023-03-12T03:17:34;14.05;;;6.98;;
54143;SDS011;40050;47.324;18.792;2023-03-12T03:19:35;11.31;;;6.88;;
54143;SDS011;40050;47.324;18.792;2023-03-12T03:21:37;10.62;;;6.38;;
54143;SDS011;40050;47.324;18.792;2023-03-12T03:23:38;12.96;;;6.88;;
54143;SDS011;40050;47.324;18.792;2023-03-12T03:25:40;12.08;;;6.38;;
54143;SDS011;40050;47.324;18.792;2023-03-12T03:27:41;11.49;;;6.58;;
54143;SDS011;40050;47.324;18.792;2023-03-12T03:29:44;11.39;;;6.48;;
54143;SDS011;40050;47.324;18.792;2023-03-12T03:31:44;10.42;;;5.98;;
54143;SDS011;40050;47.324;18.792;2023-03-12T03:33:45;10.81;;;6.28;;
54143;SDS011;40050;47.324;18.792;2023-03-12T03:35:47;10.61;;;6.38;;
54143;SDS011;40050;47.324;18.792;2023-03-12T03:37:47;13.04;;;6.08;;
54143;SDS011;40050;47.324;18.792;2023-03-12T03:39:48;11.09;;;6.58;;
54143;SDS011;40050;47.324;18.792;2023-03-12T03:41:50;10.22;;;6.38;;
54143;SDS011;40050;47.324;18.792;2023-03-12T03:43:54;11.28;;;6.58;;
54143;SDS011;40050;47.324;18.792;2023-03-12T03:45:56;10.50;;;6.28;;
54143;SDS011;40050;47.324;18.792;2023-03-12T03:47:53;10.01;;;6.58;;
54143;SDS011;40050;47.324;18.792;2023-03-12T03:49:54;10.89;;;6.48;;
54143;SDS011;40050;47.324;18.792;2023-03-12T03:51:55;10.70;;;6.18;;
54143;SDS011;40050;47.324;18.792;2023-03-12T03:53:57;10.02;;;6.38;;
54143;SDS011;40050;47.324;18.792;2023-03-12T03:55:58;11.47;;;6.78;;
54143;SDS011;40050;47.324;18.792;2023-03-12T03:57:58;11.57;;;6.28;;
54143;SDS011;40050;47.324;18.792;2023-03-12T03:59:59;11.85;;;6.48;;
54143;SDS011;40050;47.324;18.792;2023-03-12T04:02:00;10.49;;;6.38;;
54143;SDS011;40050;47.324;18.792;2023-03-12T04:04:01;10.10;;;6.28;;
54143;SDS011;40050;47.324;18.792;2023-03-12T04:06:03;11.57;;;6.58;;
54143;SDS011;40050;47.324;18.792;2023-03-12T04:08:04;12.54;;;6.68;;
54143;SDS011;40050;47.324;18.792;2023-03-12T04:10:04;11.38;;;6.38;;
54143;SDS011;40050;47.324;18.792;2023-03-12T04:12:05;11.18;;;6.48;;
54143;SDS011;40050;47.324;18.792;2023-03-12T04:14:06;11.86;;;6.88;;
54143;SDS011;40050;47.324;18.792;2023-03-12T04:16:07;11.28;;;6.18;;
54143;SDS011;40050;47.324;18.792;2023-03-12T04:18:08;10.21;;;6.28;;
54143;SDS011;40050;47.324;18.792;2023-03-12T04:20:09;10.12;;;6.38;;
54143;SDS011;40050;47.324;18.792;2023-03-12T04:22:10;11.96;;;6.48;;
54143;SDS011;40050;47.324;18.792;2023-03-12T04:24:13;10.11;;;6.38;;
54143;SDS011;40050;47.324;18.792;2023-03-12T04:26:12;11.38;;;6.08;;
54143;SDS011;40050;47.324;18.792;2023-03-12T04:28:13;11.50;;;6.08;;
54143;SDS011;40050;47.324;18.792;2023-03-12T04:30:14;10.83;;;6.28;;
54143;SDS011;40050;47.324;18.792;2023-03-12T04:32:16;12.19;;;6.28;;
54143;SDS011;40050;47.324;18.792;2023-03-12T04:34:17;11.78;;;6.88;;
54143;SDS011;40050;47.324;18.792;2023-03-12T04:36:24;12.44;;;6.88;;
54143;SDS011;40050;47.324;18.792;2023-03-12T04:38:25;11.75;;;6.18;;
54143;SDS011;40050;47.324;18.792;2023-03-12T04:40:26;11.45;;;7.07;;
54143;SDS011;40050;47.324;18.792;2023-03-12T04:42:27;12.70;;;7.07;;
54143;SDS011;40050;47.324;18.792;2023-03-12T04:44:28;12.68;;;7.37;;
54143;SDS011;40050;47.324;18.792;2023-03-12T04:46:29;12.97;;;6.87;;
54143;SDS011;40050;47.324;18.792;2023-03-12T04:48:30;12.38;;;6.77;;
54143;SDS011;40050;47.324;18.792;2023-03-12T04:50:31;13.44;;;7.37;;
54143;SDS011;40050;47.324;18.792;2023-03-12T04:52:32;13.43;;;7.17;;
54143;SDS011;40050;47.324;18.792;2023-03-12T04:54:33;12.57;;;7.17;;
54143;SDS011;40050;47.324;18.792;2023-03-12T04:56:34;12.18;;;7.17;;
54143;SDS011;40050;47.324;18.792;2023-03-12T04:58:35;11.98;;;6.87;;
54143;SDS011;40050;47.324;18.792;2023-03-12T05:00:37;14.49;;;7.56;;
54143;SDS011;40050;47.324;18.792;2023-03-12T05:02:40;11.31;;;6.87;;
54143;SDS011;40050;47.324;18.792;2023-03-12T05:04:41;12.29;;;7.37;;
54143;SDS011;40050;47.324;18.792;2023-03-12T05:06:42;12.00;;;6.87;;
54143;SDS011;40050;47.324;18.792;2023-03-12T05:08:43;12.78;;;7.37;;
54143;SDS011;40050;47.324;18.792;2023-03-12T05:10:44;10.55;;;6.87;;
54143;SDS011;40050;47.324;18.792;2023-03-12T05:12:45;14.52;;;7.47;;
54143;SDS011;40050;47.324;18.792;2023-03-12T05:14:45;16.44;;;7.77;;
54143;SDS011;40050;47.324;18.792;2023-03-12T05:16:47;14.60;;;7.96;;
54143;SDS011;40050;47.324;18.792;2023-03-12T05:18:48;22.88;;;10.45;;
54143;SDS011;40050;47.324;18.792;2023-03-12T05:21:08;40.79;;;18.31;;
54143;SDS011;40050;47.324;18.792;2023-03-12T05:22:50;68.95;;;33.13;;
54143;SDS011;40050;47.324;18.792;2023-03-12T05:24:51;71.52;;;33.63;;
54143;SDS011;40050;47.324;18.792;2023-03-12T05:26:57;26.01;;;13.73;;
54143;SDS011;40050;47.324;18.792;2023-03-12T05:28:59;40.16;;;19.79;;
54143;SDS011;40050;47.324;18.792;2023-03-12T05:30:59;20.31;;;11.64;;
54143;SDS011;40050;47.324;18.792;2023-03-12T05:33:00;17.43;;;9.75;;
54143;SDS011;40050;47.324;18.792;2023-03-12T05:35:01;18.75;;;10.34;;
54143;SDS011;40050;47.324;18.792;2023-03-12T05:37:02;19.71;;;9.65;;
54143;SDS011;40050;47.324;18.792;2023-03-12T05:39:03;16.06;;;9.05;;
54143;SDS011;40050;47.324;18.792;2023-03-12T05:41:04;19.35;;;8.95;;
54143;SDS011;40050;47.324;18.792;2023-03-12T05:43:05;15.98;;;8.95;;
54143;SDS011;40050;47.324;18.792;2023-03-12T05:45:06;16.15;;;8.75;;
54143;SDS011;40050;47.324;18.792;2023-03-12T05:47:07;15.77;;;8.75;;
54143;SDS011;40050;47.324;18.792;2023-03-12T05:49:08;15.96;;;8.55;;
54143;SDS011;40050;47.324;18.792;2023-03-12T05:51:09;16.63;;;8.35;;
54143;SDS011;40050;47.324;18.792;2023-03-12T05:53:10;14.32;;;8.05;;
54143;SDS011;40050;47.324;18.792;2023-03-12T05:55:13;17.10;;;8.35;;
54143;SDS011;40050;47.324;18.792;2023-03-12T05:57:12;15.39;;;8.75;;
54143;SDS011;40050;47.324;18.792;2023-03-12T05:59:13;15.98;;;8.45;;
54143;SDS011;40050;47.324;18.792;2023-03-12T06:01:16;14.64;;;8.35;;
54143;SDS011;40050;47.324;18.792;2023-03-12T06:03:15;15.70;;;8.26;;
54143;SDS011;40050;47.324;18.792;2023-03-12T06:05:16;15.03;;;8.65;;
54143;SDS011;40050;47.324;18.792;2023-03-12T06:07:17;17.23;;;9.25;;
54143;SDS011;40050;47.324;18.792;2023-03-12T06:09:19;15.39;;;8.95;;
54143;SDS011;40050;47.324;18.792;2023-03-12T06:11:21;14.34;;;8.25;;
54143;SDS011;40050;47.324;18.792;2023-03-12T06:13:22;14.73;;;8.75;;
54143;SDS011;40050;47.324;18.792;2023-03-12T06:15:23;12.82;;;7.66;;
54143;SDS011;40050;47.324;18.792;2023-03-12T06:17:24;13.41;;;7.76;;
54143;SDS011;40050;47.324;18.792;2023-03-12T06:19:29;13.61;;;7.56;;
54143;SDS011;40050;47.324;18.792;2023-03-12T06:21:42;13.52;;;7.86;;
54143;SDS011;40050;47.324;18.792;2023-03-12T06:23:44;14.29;;;8.36;;
54143;SDS011;40050;47.324;18.792;2023-03-12T06:25:44;13.90;;;8.16;;
54143;SDS011;40050;47.324;18.792;2023-03-12T06:27:45;12.45;;;7.26;;
54143;SDS011;40050;47.324;18.792;2023-03-12T06:29:46;12.16;;;7.56;;
54143;SDS011;40050;47.324;18.792;2023-03-12T06:31:48;14.60;;;7.86;;
54143;SDS011;40050;47.324;18.792;2023-03-12T06:33:49;14.51;;;8.46;;
54143;SDS011;40050;47.324;18.792;2023-03-12T06:35:54;12.78;;;7.47;;
54143;SDS011;40050;47.324;18.792;2023-03-12T06:37:51;17.06;;;8.17;;
54143;SDS011;40050;47.324;18.792;2023-03-12T06:39:52;13.07;;;7.87;;
54143;SDS011;40050;47.324;18.792;2023-03-12T06:41:53;10.57;;;7.07;;
54143;SDS011;40050;47.324;18.792;2023-03-12T06:43:55;12.23;;;7.37;;
54143;SDS011;40050;47.324;18.792;2023-03-12T06:45:56;13.12;;;7.27;;
54143;SDS011;40050;47.324;18.792;2023-03-12T06:47:57;12.63;;;7.47;;
54143;SDS011;40050;47.324;18.792;2023-03-12T06:49:58;13.13;;;7.38;;
54143;SDS011;40050;47.324;18.792;2023-03-12T06:51:59;12.65;;;7.38;;
54143;SDS011;40050;47.324;18.792;2023-03-12T06:54:00;12.56;;;7.28;;
54143;SDS011;40050;47.324;18.792;2023-03-12T06:56:00;12.76;;;7.38;;
54143;SDS011;40050;47.324;18.792;2023-03-12T06:58:01;11.99;;;6.98;;
54143;SDS011;40050;47.324;18.792;2023-03-12T07:00:03;12.98;;;7.58;;
54143;SDS011;40050;47.324;18.792;2023-03-12T07:02:03;11.70;;;7.28;;
54143;SDS011;40050;47.324;18.792;2023-03-12T07:04:04;13.27;;;7.58;;
54143;SDS011;40050;47.324;18.792;2023-03-12T07:06:11;11.91;;;7.28;;
54143;SDS011;40050;47.324;18.792;2023-03-12T07:08:06;12.10;;;7.38;;
54143;SDS011;40050;47.324;18.792;2023-03-12T07:10:09;11.33;;;6.68;;
54143;SDS011;40050;47.324;18.792;2023-03-12T07:12:08;11.52;;;6.88;;
54143;SDS011;40050;47.324;18.792;2023-03-12T07:14:09;12.60;;;7.08;;
54143;SDS011;40050;47.324;18.792;2023-03-12T07:16:10;10.46;;;6.88;;
54143;SDS011;40050;47.324;18.792;2023-03-12T07:18:11;11.83;;;6.98;;
54143;SDS011;40050;47.324;18.792;2023-03-12T07:20:12;11.04;;;6.58;;
54143;SDS011;40050;47.324;18.792;2023-03-12T07:22:13;10.17;;;6.58;;
54143;SDS011;40050;47.324;18.792;2023-03-12T07:24:14;10.88;;;6.79;;
54143;SDS011;40050;47.324;18.792;2023-03-12T07:26:15;10.08;;;6.68;;
54143;SDS011;40050;47.324;18.792;2023-03-12T07:28:17;12.33;;;6.88;;
54143;SDS011;40050;47.324;18.792;2023-03-12T07:30:18;11.87;;;6.89;;
54143;SDS011;40050;47.324;18.792;2023-03-12T07:32:19;10.70;;;6.49;;
54143;SDS011;40050;47.324;18.792;2023-03-12T07:34:20;9.92;;;6.29;;
54143;SDS011;40050;47.324;18.792;2023-03-12T07:36:20;9.61;;;6.29;;
54143;SDS011;40050;47.324;18.792;2023-03-12T07:38:21;14.25;;;6.79;;
54143;SDS011;40050;47.324;18.792;2023-03-12T07:40:22;10.32;;;6.69;;
54143;SDS011;40050;47.324;18.792;2023-03-12T07:42:23;10.23;;;6.19;;
54143;SDS011;40050;47.324;18.792;2023-03-12T07:44:24;10.72;;;6.89;;
54143;SDS011;40050;47.324;18.792;2023-03-12T07:46:25;10.93;;;6.39;;
54143;SDS011;40050;47.324;18.792;2023-03-12T07:48:26;10.35;;;6.19;;
54143;SDS011;40050;47.324;18.792;2023-03-12T07:50:27;10.16;;;5.99;;
54143;SDS011;40050;47.324;18.792;2023-03-12T07:52:28;8.68;;;6.09;;
54143;SDS011;40050;47.324;18.792;2023-03-12T07:54:29;9.39;;;5.89;;
54143;SDS011;40050;47.324;18.792;2023-03-12T07:56:30;9.57;;;5.89;;
54143;SDS011;40050;47.324;18.792;2023-03-12T07:58:37;10.77;;;6.39;;
54143;SDS011;40050;47.324;18.792;2023-03-12T08:00:38;9.97;;;6.29;;
54143;SDS011;40050;47.324;18.792;2023-03-12T08:02:40;10.37;;;6.29;;
54143;SDS011;40050;47.324;18.792;2023-03-12T08:04:41;9.77;;;6.29;;
54143;SDS011;40050;47.324;18.792;2023-03-12T08:06:43;9.58;;;6.19;;
54143;SDS011;40050;47.324;18.792;2023-03-12T08:08:43;8.29;;;5.69;;
54143;SDS011;40050;47.324;18.792;2023-03-12T08:10:44;7.81;;;5.30;;
54143;SDS011;40050;47.324;18.792;2023-03-12T08:12:46;8.01;;;5.50;;
54143;SDS011;40050;47.324;18.792;2023-03-12T08:15:00;8.62;;;5.60;;
54143;SDS011;40050;47.324;18.792;2023-03-12T08:17:01;10.41;;;6.10;;
54143;SDS011;40050;47.324;18.792;2023-03-12T08:19:10;10.70;;;5.60;;
54143;SDS011;40050;47.324;18.792;2023-03-12T08:21:10;9.43;;;5.80;;
54143;SDS011;40050;47.324;18.792;2023-03-12T08:23:04;9.14;;;5.50;;
54143;SDS011;40050;47.324;18.792;2023-03-12T08:25:06;9.23;;;5.20;;
54143;SDS011;40050;47.324;18.792;2023-03-12T08:27:09;7.84;;;5.30;;
54143;SDS011;40050;47.324;18.792;2023-03-12T08:29:12;7.35;;;5.00;;
54143;SDS011;40050;47.324;18.792;2023-03-12T08:31:28;7.05;;;5.00;;
54143;SDS011;40050;47.324;18.792;2023-03-12T08:33:29;6.65;;;4.50;;
54143;SDS011;40050;47.324;18.792;2023-03-12T08:35:30;7.25;;;4.80;;
54143;SDS011;40050;47.324;18.792;2023-03-12T08:37:31;6.36;;;4.30;;
54143;SDS011;40050;47.324;18.792;2023-03-12T08:39:32;7.96;;;5.10;;
54143;SDS011;40050;47.324;18.792;2023-03-12T08:41:33;6.87;;;4.80;;
54143;SDS011;40050;47.324;18.792;2023-03-12T08:43:36;6.37;;;4.40;;
54143;SDS011;40050;47.324;18.792;2023-03-12T08:45:37;6.97;;;4.50;;
54143;SDS011;40050;47.324;18.792;2023-03-12T08:47:38;6.37;;;4.30;;
54143;SDS011;40050;47.324;18.792;2023-03-12T08:49:39;7.17;;;4.80;;
54143;SDS011;40050;47.324;18.792;2023-03-12T08:51:40;7.67;;;4.50;;
54143;SDS011;40050;47.324;18.792;2023-03-12T08:53:41;7.37;;;5.00;;
54143;SDS011;40050;47.324;18.792;2023-03-12T08:55:42;7.87;;;5.00;;
54143;SDS011;40050;47.324;18.792;2023-03-12T08:57:43;6.87;;;4.80;;
54143;SDS011;40050;47.324;18.792;2023-03-12T08:59:44;6.97;;;4.50;;
54143;SDS011;40050;47.324;18.792;2023-03-12T09:01:45;6.97;;;4.80;;
54143;SDS011;40050;47.324;18.792;2023-03-12T09:03:46;7.37;;;4.60;;
54143;SDS011;40050;47.324;18.792;2023-03-12T09:05:47;6.87;;;4.60;;
54143;SDS011;40050;47.324;18.792;2023-03-12T09:07:48;7.47;;;4.90;;
54143;SDS011;40050;47.324;18.792;2023-03-12T09:09:49;6.18;;;4.40;;
54143;SDS011;40050;47.324;18.792;2023-03-12T09:11:50;7.37;;;5.00;;
54143;SDS011;40050;47.324;18.792;2023-03-12T09:13:51;8.07;;;5.00;;
54143;SDS011;40050;47.324;18.792;2023-03-12T09:15:52;7.68;;;4.90;;
54143;SDS011;40050;47.324;18.792;2023-03-12T09:17:52;6.28;;;4.40;;
54143;SDS011;40050;47.324;18.792;2023-03-12T09:19:53;7.48;;;5.00;;
54143;SDS011;40050;47.324;18.792;2023-03-12T09:21:54;6.48;;;4.50;;
54143;SDS011;40050;47.324;18.792;2023-03-12T09:23:56;7.18;;;4.50;;
54143;SDS011;40050;47.324;18.792;2023-03-12T09:25:57;6.38;;;4.40;;
54143;SDS011;40050;47.324;18.792;2023-03-12T09:27:58;5.79;;;4.20;;
54143;SDS011;40050;47.324;18.792;2023-03-12T09:29:59;6.59;;;4.40;;
54143;SDS011;40050;47.324;18.792;2023-03-12T09:32:00;6.88;;;4.50;;
54143;SDS011;40050;47.324;18.792;2023-03-12T09:34:01;5.49;;;4.00;;
54143;SDS011;40050;47.324;18.792;2023-03-12T09:36:05;7.49;;;4.80;;
54143;SDS011;40050;47.324;18.792;2023-03-12T09:38:06;6.89;;;4.40;;
54143;SDS011;40050;47.324;18.792;2023-03-12T09:40:07;6.49;;;4.40;;
54143;SDS011;40050;47.324;18.792;2023-03-12T09:42:13;6.79;;;4.50;;
54143;SDS011;40050;47.324;18.792;2023-03-12T09:46:14;6.89;;;4.90;;
54143;SDS011;40050;47.324;18.792;2023-03-12T09:48:32;6.99;;;4.20;;
54143;SDS011;40050;47.324;18.792;2023-03-12T09:50:25;6.29;;;4.60;;
54143;SDS011;40050;47.324;18.792;2023-03-12T09:52:28;6.89;;;4.20;;
54143;SDS011;40050;47.324;18.792;2023-03-12T09:54:37;6.89;;;4.20;;
54143;SDS011;40050;47.324;18.792;2023-03-12T09:56:33;8.29;;;4.70;;
54143;SDS011;40050;47.324;18.792;2023-03-12T09:58:44;6.79;;;4.50;;
54143;SDS011;40050;47.324;18.792;2023-03-12T10:00:48;6.69;;;4.30;;
54143;SDS011;40050;47.324;18.792;2023-03-12T10:03:07;6.09;;;4.40;;
54143;SDS011;40050;47.324;18.792;2023-03-12T10:05:45;5.29;;;3.90;;
54143;SDS011;40050;47.324;18.792;2023-03-12T10:07:31;6.69;;;4.50;;
54143;SDS011;40050;47.324;18.792;2023-03-12T10:09:44;6.29;;;4.20;;
54143;SDS011;40050;47.324;18.792;2023-03-12T10:11:58;5.69;;;3.90;;
54143;SDS011;40050;47.324;18.792;2023-03-12T10:14:29;6.19;;;4.20;;
54143;SDS011;40050;47.324;18.792;2023-03-12T10:16:25;5.29;;;3.80;;
54143;SDS011;40050;47.324;18.792;2023-03-12T10:23:24;5.19;;;3.80;;
54143;SDS011;40050;47.324;18.792;2023-03-12T10:25:41;5.39;;;3.80;;
54143;SDS011;40050;47.324;18.792;2023-03-12T10:27:44;5.69;;;3.90;;
54143;SDS011;40050;47.324;18.792;2023-03-12T10:29:54;5.29;;;3.70;;
54143;SDS011;40050;47.324;18.792;2023-03-12T10:32:36;5.09;;;3.60;;
54143;SDS011;40050;47.324;18.792;2023-03-12T10:34:27;5.29;;;3.30;;
54143;SDS011;40050;47.324;18.792;2023-03-12T10:36:17;5.40;;;3.20;;
54143;SDS011;40050;47.324;18.792;2023-03-12T10:38:29;6.19;;;3.80;;
54143;SDS011;40050;47.324;18.792;2023-03-12T10:40:31;5.09;;;3.10;;
54143;SDS011;40050;47.324;18.792;2023-03-12T10:42:32;5.69;;;3.40;;
54143;SDS011;40050;47.324;18.792;2023-03-12T10:44:50;4.99;;;3.10;;
54143;SDS011;40050;47.324;18.792;2023-03-12T10:47:17;7.09;;;3.50;;
54143;SDS011;40050;47.324;18.792;2023-03-12T10:51:10;6.89;;;4.70;;
54143;SDS011;40050;47.324;18.792;2023-03-12T10:53:26;7.29;;;4.90;;
54143;SDS011;40050;47.324;18.792;2023-03-12T10:55:19;5.79;;;4.50;;
54143;SDS011;40050;47.324;18.792;2023-03-12T10:57:30;7.99;;;5.00;;
54143;SDS011;40050;47.324;18.792;2023-03-12T10:59:28;6.99;;;4.50;;
54143;SDS011;40050;47.324;18.792;2023-03-12T11:01:29;6.79;;;4.20;;
54143;SDS011;40050;47.324;18.792;2023-03-12T11:03:37;6.99;;;4.70;;
54143;SDS011;40050;47.324;18.792;2023-03-12T11:05:48;6.49;;;4.40;;
54143;SDS011;40050;47.324;18.792;2023-03-12T11:08:02;6.29;;;4.10;;
54143;SDS011;40050;47.324;18.792;2023-03-12T11:12:27;6.49;;;3.80;;
54143;SDS011;40050;47.324;18.792;2023-03-12T11:14:21;8.59;;;4.20;;
54143;SDS011;40050;47.324;18.792;2023-03-12T11:18:21;6.69;;;3.60;;
54143;SDS011;40050;47.324;18.792;2023-03-12T11:22:32;8.89;;;4.30;;
54143;SDS011;40050;47.324;18.792;2023-03-12T11:25:18;6.59;;;3.90;;
54143;SDS011;40050;47.324;18.792;2023-03-12T11:26:49;6.70;;;4.00;;
54143;SDS011;40050;47.324;18.792;2023-03-12T11:29:02;6.19;;;4.10;;
54143;SDS011;40050;47.324;18.792;2023-03-12T11:31:00;5.50;;;3.90;;
54143;SDS011;40050;47.324;18.792;2023-03-12T11:33:03;7.20;;;3.70;;
54143;SDS011;40050;47.324;18.792;2023-03-12T11:35:10;4.50;;;3.20;;
54143;SDS011;40050;47.324;18.792;2023-03-12T11:37:25;5.50;;;3.30;;
54143;SDS011;40050;47.324;18.792;2023-03-12T11:39:47;5.60;;;2.80;;
54143;SDS011;40050;47.324;18.792;2023-03-12T11:41:48;4.20;;;2.50;;
54143;SDS011;40050;47.324;18.792;2023-03-12T11:46:35;4.70;;;2.70;;
54143;SDS011;40050;47.324;18.792;2023-03-12T11:48:54;4.70;;;2.90;;
54143;SDS011;40050;47.324;18.792;2023-03-12T11:51:10;3.70;;;2.60;;
54143;SDS011;40050;47.324;18.792;2023-03-12T11:56:29;4.40;;;2.10;;
54143;SDS011;40050;47.324;18.792;2023-03-12T12:00:16;3.50;;;2.10;;
54143;SDS011;40050;47.324;18.792;2023-03-12T12:07:15;4.90;;;2.10;;
54143;SDS011;40050;47.324;18.792;2023-03-12T12:09:41;4.30;;;2.30;;
54143;SDS011;40050;47.324;18.792;2023-03-12T12:18:48;3.10;;;2.00;;
54143;SDS011;40050;47.324;18.792;2023-03-12T12:21:09;2.90;;;2.20;;
54143;SDS011;40050;47.324;18.792;2023-03-12T12:25:29;2.70;;;1.80;;
54143;SDS011;40050;47.324;18.792;2023-03-12T12:27:55;2.60;;;2.00;;
54143;SDS011;40050;47.324;18.792;2023-03-12T12:30:02;3.60;;;2.00;;
54143;SDS011;40050;47.324;18.792;2023-03-12T12:32:14;3.10;;;2.10;;
54143;SDS011;40050;47.324;18.792;2023-03-12T12:34:35;3.10;;;2.20;;
54143;SDS011;40050;47.324;18.792;2023-03-12T12:36:27;7.60;;;2.50;;
54143;SDS011;40050;47.324;18.792;2023-03-12T12:38:45;4.30;;;2.60;;
54143;SDS011;40050;47.324;18.792;2023-03-12T12:45:18;4.50;;;2.30;;
54143;SDS011;40050;47.324;18.792;2023-03-12T12:47:46;4.10;;;2.70;;